Time;durP1;ratioP1;P1;durP2;ratioP2;P2;SDS_P1;SDS_P2;PMS_P1;PMS_P2;Temp;Humidity;BMP_temperature;BMP_pressure;BME280_temperature;BME280_humidity;BME280_pressure;Samples;Min_cycle;Max_cycle;Signal;HPM_P1;HPM_P2
2023/05/30 00:00:43;;;;;;;19.73;3.10;;;11.10;92.10;;;;;;1971583;28;20017;-63
2023/05/30 00:01:41;;;;;;;9.10;2.85;;;11.10;92.20;;;;;;1971699;28;20014;-63
2023/05/30 00:02:39;;;;;;;12.15;2.92;;;11.10;92.30;;;;;;1970796;28;20029;-63
2023/05/30 00:03:36;;;;;;;8.05;2.47;;;11.10;92.20;;;;;;1971627;28;20034;-63
2023/05/30 00:04:35;;;;;;;6.60;2.95;;;11.10;92.30;;;;;;1970218;28;20037;-63
2023/05/30 00:05:33;;;;;;;6.28;2.55;;;11.10;92.00;;;;;;1972149;28;20026;-63
2023/05/30 00:06:31;;;;;;;6.32;2.45;;;11.00;92.00;;;;;;1973173;28;20029;-64
2023/05/30 00:07:29;;;;;;;8.90;2.53;;;11.10;92.30;;;;;;1971735;28;20029;-63
2023/05/30 00:08:26;;;;;;;11.10;3.30;;;11.10;92.50;;;;;;1973467;28;20482;-63
2023/05/30 00:09:24;;;;;;;7.15;2.70;;;11.10;92.50;;;;;;1970287;28;20025;-63
2023/05/30 00:10:21;;;;;;;8.35;2.78;;;11.20;92.50;;;;;;1971885;28;20033;-63
2023/05/30 00:11:19;;;;;;;9.57;3.10;;;11.20;92.20;;;;;;1972275;28;20374;-63
2023/05/30 00:12:17;;;;;;;13.07;3.50;;;11.20;92.20;;;;;;1972295;28;20039;-63
2023/05/30 00:13:14;;;;;;;8.65;2.65;;;11.10;92.30;;;;;;1969823;28;20037;-63
2023/05/30 00:14:12;;;;;;;8.10;2.78;;;11.10;92.80;;;;;;1969363;28;20036;-63
2023/05/30 00:15:10;;;;;;;6.78;2.85;;;11.10;92.80;;;;;;1970972;28;20059;-63
2023/05/30 00:16:08;;;;;;;12.13;3.20;;;11.10;93.20;;;;;;1969524;28;20483;-63
2023/05/30 00:17:07;;;;;;;14.35;2.92;;;11.10;93.00;;;;;;1968969;28;20148;-63
2023/05/30 00:18:05;;;;;;;10.25;3.33;;;11.10;93.20;;;;;;1969524;28;20025;-63
2023/05/30 00:19:04;;;;;;;7.43;3.10;;;11.20;93.40;;;;;;1972803;28;20104;-63
2023/05/30 00:20:03;;;;;;;7.97;3.38;;;11.10;93.60;;;;;;1970818;28;20018;-63
2023/05/30 00:21:03;;;;;;;6.90;2.40;;;11.10;93.70;;;;;;1971331;28;20049;-63
2023/05/30 00:22:01;;;;;;;10.45;3.25;;;11.20;93.90;;;;;;1968660;28;20026;-63
2023/05/30 00:22:58;;;;;;;10.20;2.78;;;11.10;94.00;;;;;;1971774;28;20026;-63
2023/05/30 00:23:56;;;;;;;11.35;2.90;;;11.10;94.00;;;;;;1971115;28;20021;-63
2023/05/30 00:24:55;;;;;;;10.10;3.20;;;11.00;94.10;;;;;;1969704;28;20127;-63
2023/05/30 00:25:53;;;;;;;10.18;2.88;;;11.10;94.40;;;;;;1969723;28;20064;-63
2023/05/30 00:26:50;;;;;;;11.77;3.28;;;11.00;94.60;;;;;;1970085;28;20037;-63
2023/05/30 00:27:48;;;;;;;8.68;2.85;;;11.00;94.70;;;;;;1969315;28;20032;-63
2023/05/30 00:28:45;;;;;;;13.38;3.55;;;11.00;94.90;;;;;;1970155;28;20033;-63
2023/05/30 00:29:43;;;;;;;16.30;3.42;;;11.00;94.90;;;;;;1973323;28;20033;-63
2023/05/30 00:30:41;;;;;;;9.65;2.70;;;11.00;95.10;;;;;;1969729;28;20021;-63
2023/05/30 00:31:38;;;;;;;10.02;3.28;;;10.90;95.40;;;;;;1970812;28;20091;-63
2023/05/30 00:32:36;;;;;;;10.98;2.75;;;10.90;95.40;;;;;;1973108;28;20028;-63
2023/05/30 00:33:33;;;;;;;9.50;2.80;;;10.90;95.50;;;;;;1971931;28;20485;-63
2023/05/30 00:34:31;;;;;;;11.18;2.80;;;10.80;95.80;;;;;;1972601;28;20557;-63
2023/05/30 00:35:28;;;;;;;9.30;3.28;;;10.80;95.80;;;;;;1972635;28;20026;-63
2023/05/30 00:36:26;;;;;;;12.13;3.30;;;10.80;96.10;;;;;;1971692;28;20411;-63
2023/05/30 00:37:23;;;;;;;13.43;2.70;;;10.80;97.00;;;;;;1970801;28;20030;-63
2023/05/30 00:38:21;;;;;;;8.50;2.90;;;10.70;96.70;;;;;;1971938;28;20029;-63
2023/05/30 00:39:18;;;;;;;11.82;2.75;;;10.70;96.80;;;;;;1971172;28;20029;-63
2023/05/30 00:40:16;;;;;;;13.50;3.28;;;10.70;96.80;;;;;;1970109;28;20026;-63
2023/05/30 00:41:14;;;;;;;12.88;3.33;;;10.70;97.00;;;;;;1971164;28;20037;-63
2023/05/30 00:42:11;;;;;;;5.40;2.65;;;10.70;96.90;;;;;;1969287;28;20024;-63
2023/05/30 00:43:09;;;;;;;10.27;3.08;;;10.60;97.20;;;;;;1970553;28;20041;-63
2023/05/30 00:44:06;;;;;;;10.50;3.40;;;10.60;97.40;;;;;;1970464;28;20413;-63
2023/05/30 00:45:05;;;;;;;11.38;3.25;;;10.60;97.50;;;;;;1971498;28;20017;-63
2023/05/30 00:46:04;;;;;;;8.60;3.28;;;10.60;97.70;;;;;;1969543;28;20083;-63
2023/05/30 00:47:01;;;;;;;10.70;3.22;;;10.60;97.80;;;;;;1972008;28;20090;-63
2023/05/30 00:47:59;;;;;;;8.27;2.55;;;10.60;97.90;;;;;;1966462;28;20080;-63
2023/05/30 00:48:57;;;;;;;9.23;3.20;;;10.60;97.50;;;;;;1971033;28;20027;-63
2023/05/30 00:49:55;;;;;;;7.30;2.70;;;10.60;97.70;;;;;;1971836;28;20033;-63
2023/05/30 00:50:53;;;;;;;10.05;3.28;;;10.60;97.70;;;;;;1962552;28;20137;-63
2023/05/30 00:51:51;;;;;;;15.60;2.90;;;10.50;97.80;;;;;;1964413;28;20049;-63
2023/05/30 00:52:49;;;;;;;9.65;2.80;;;10.50;98.10;;;;;;1971291;28;20553;-63
2023/05/30 00:53:47;;;;;;;7.50;2.90;;;10.50;98.10;;;;;;1972553;28;20029;-63
2023/05/30 00:54:44;;;;;;;11.52;3.45;;;10.50;98.30;;;;;;1968954;28;20022;-63
2023/05/30 00:55:42;;;;;;;9.90;3.00;;;10.50;99.00;;;;;;1971115;28;20123;-63
2023/05/30 00:56:40;;;;;;;12.05;3.28;;;10.40;98.80;;;;;;1970713;28;20119;-63
2023/05/30 00:57:37;;;;;;;10.23;2.90;;;10.40;98.90;;;;;;1972343;28;20014;-63
2023/05/30 00:58:36;;;;;;;19.02;2.83;;;10.30;99.10;;;;;;1969995;28;20026;-63
2023/05/30 00:59:33;;;;;;;14.05;3.30;;;10.30;99.50;;;;;;1969948;28;20038;-63
2023/05/30 01:00:31;;;;;;;8.00;2.78;;;10.30;99.90;;;;;;1962076;28;20047;-63
2023/05/30 01:01:29;;;;;;;10.80;3.70;;;10.30;99.90;;;;;;1967915;28;20025;-63
2023/05/30 01:02:26;;;;;;;11.57;3.47;;;10.30;99.90;;;;;;1973309;28;20025;-63
2023/05/30 01:03:24;;;;;;;10.50;3.55;;;10.20;99.80;;;;;;1970231;28;20067;-63
2023/05/30 01:04:22;;;;;;;12.35;3.70;;;10.20;99.90;;;;;;1969894;28;20039;-63
2023/05/30 01:05:20;;;;;;;11.32;3.42;;;10.30;99.70;;;;;;1969847;28;20602;-63
2023/05/30 01:06:20;;;;;;;10.23;3.20;;;10.20;99.90;;;;;;1970195;28;20029;-63
2023/05/30 01:07:17;;;;;;;10.75;3.30;;;10.20;99.90;;;;;;1971915;28;20048;-63
2023/05/30 01:08:15;;;;;;;8.30;2.75;;;10.20;99.90;;;;;;1971374;28;20028;-63
2023/05/30 01:09:12;;;;;;;7.43;2.95;;;10.20;99.90;;;;;;1969323;28;20033;-63
2023/05/30 01:10:11;;;;;;;18.02;3.03;;;10.10;99.90;;;;;;1969715;28;20825;-63
2023/05/30 01:11:29;;;;;;;10.30;3.20;;;10.10;99.90;;;;;;1964091;28;20494;-63
2023/05/30 01:12:47;;;;;;;8.85;3.75;;;10.10;99.90;;;;;;1958648;28;20133;-63
2023/05/30 01:14:02;;;;;;;12.07;3.17;;;10.00;99.90;;;;;;1964298;28;20542;-63
2023/05/30 01:15:21;;;;;;;9.82;2.67;;;9.90;99.90;;;;;;1966690;28;20509;-63
2023/05/30 01:16:21;;;;;;;4.75;2.80;;;10.00;99.90;;;;;;1967543;28;20033;-63
2023/05/30 01:17:33;;;;;;;13.02;3.25;;;9.90;99.90;;;;;;1972051;28;20352;-63
2023/05/30 01:18:39;;;;;;;10.02;3.40;;;9.90;99.90;;;;;;1967447;28;20033;-63
2023/05/30 01:20:05;;;;;;;11.15;2.97;;;9.90;99.90;;;;;;1963722;28;20056;-63
2023/05/30 01:21:07;;;;;;;10.88;3.45;;;9.90;99.90;;;;;;1965776;28;20371;-63
2023/05/30 01:22:32;;;;;;;8.57;3.13;;;9.90;99.90;;;;;;1969488;28;20043;-63
2023/05/30 01:23:52;;;;;;;9.73;3.65;;;9.80;99.90;;;;;;1963219;28;20026;-63
2023/05/30 01:25:05;;;;;;;6.97;2.85;;;9.80;99.90;;;;;;1963322;28;20443;-63
2023/05/30 01:26:22;;;;;;;11.88;3.00;;;9.80;99.90;;;;;;1970637;28;20029;-63
2023/05/30 01:27:36;;;;;;;13.73;3.38;;;9.80;99.90;;;;;;1966302;28;20108;-63
2023/05/30 01:28:36;;;;;;;10.43;3.25;;;9.80;99.90;;;;;;1967187;28;20502;-63
2023/05/30 01:29:34;;;;;;;8.65;3.47;;;9.80;99.90;;;;;;1973972;28;20030;-63
2023/05/30 01:30:32;;;;;;;8.45;3.08;;;9.80;99.90;;;;;;1961799;28;20629;-63
2023/05/30 01:31:31;;;;;;;5.55;2.63;;;9.80;99.90;;;;;;1957359;28;20034;-63
2023/05/30 01:32:28;;;;;;;15.27;2.97;;;9.80;99.90;;;;;;1962492;28;20100;-63
2023/05/30 01:33:27;;;;;;;14.70;3.17;;;9.80;99.90;;;;;;1970766;28;20032;-63
2023/05/30 01:34:24;;;;;;;13.35;3.40;;;9.80;99.90;;;;;;1971921;28;20033;-63
2023/05/30 01:35:22;;;;;;;10.63;3.17;;;9.80;99.90;;;;;;1964258;28;20581;-63
2023/05/30 01:36:20;;;;;;;7.25;3.10;;;9.80;99.90;;;;;;1973303;28;20028;-63
2023/05/30 01:37:17;;;;;;;17.45;3.15;;;9.80;99.90;;;;;;1972689;28;20024;-63
2023/05/30 01:38:15;;;;;;;15.05;3.10;;;9.80;99.90;;;;;;1972029;28;20029;-63
2023/05/30 01:39:12;;;;;;;7.53;3.65;;;9.80;99.90;;;;;;1974770;28;20021;-63
2023/05/30 01:40:10;;;;;;;19.55;3.92;;;9.70;99.90;;;;;;1973216;28;20108;-63
2023/05/30 01:41:17;;;;;;;8.45;3.13;;;9.70;99.90;;;;;;1963691;28;20035;-63
2023/05/30 01:42:22;;;;;;;7.03;3.28;;;9.70;99.90;;;;;;1963534;28;20364;-63
2023/05/30 01:43:25;;;;;;;8.05;2.83;;;9.70;99.90;;;;;;1965619;28;20037;-63
2023/05/30 01:44:33;;;;;;;14.65;3.70;;;9.70;99.90;;;;;;1972307;28;20498;-63
2023/05/30 01:45:54;;;;;;;14.32;3.13;;;9.60;99.90;;;;;;1972613;28;20032;-63
2023/05/30 01:47:21;;;;;;;13.75;3.60;;;10.30;99.90;;;;;;1970097;28;20114;-63
2023/05/30 01:48:28;;;;;;;13.50;3.03;;;9.50;99.90;;;;;;1970241;28;20144;-63
2023/05/30 01:49:38;;;;;;;14.30;3.22;;;9.60;99.90;;;;;;1966920;28;21039;-63
2023/05/30 01:50:37;;;;;;;12.57;3.20;;;9.50;99.90;;;;;;1966919;28;20084;-63
2023/05/30 01:51:42;;;;;;;15.45;3.50;;;9.50;99.90;;;;;;1974004;28;20456;-63
2023/05/30 01:52:41;;;;;;;12.85;3.30;;;9.50;99.90;;;;;;1973573;28;20029;-63
2023/05/30 01:53:39;;;;;;;10.38;3.15;;;9.40;99.90;;;;;;1972879;28;20355;-63
2023/05/30 01:54:37;;;;;;;13.45;3.10;;;9.40;99.90;;;;;;1962726;28;20102;-63
2023/05/30 01:55:35;;;;;;;12.10;2.88;;;9.40;99.90;;;;;;1970363;28;20030;-63
2023/05/30 01:56:32;;;;;;;9.60;2.78;;;9.40;99.90;;;;;;1971212;28;20047;-63
2023/05/30 01:57:30;;;;;;;5.45;2.42;;;9.40;99.90;;;;;;1972813;28;20021;-63
2023/05/30 01:58:28;;;;;;;11.52;3.28;;;9.40;99.90;;;;;;1964897;28;20157;-63
2023/05/30 01:59:26;;;;;;;13.68;3.42;;;9.40;99.90;;;;;;1963102;28;20427;-63
2023/05/30 02:00:24;;;;;;;10.88;3.45;;;9.40;99.90;;;;;;1965691;28;20022;-63
2023/05/30 02:01:23;;;;;;;11.50;3.13;;;9.40;99.90;;;;;;1970317;28;20492;-63
2023/05/30 02:02:21;;;;;;;8.55;3.08;;;9.40;99.90;;;;;;1967425;28;20018;-63
2023/05/30 02:03:21;;;;;;;10.80;3.15;;;9.30;99.90;;;;;;1971485;28;20491;-63
2023/05/30 02:04:18;;;;;;;11.18;3.08;;;9.40;99.90;;;;;;1971101;28;20131;-63
2023/05/30 02:05:16;;;;;;;11.55;3.85;;;9.30;99.90;;;;;;1971038;28;20079;-63
2023/05/30 02:06:13;;;;;;;11.68;3.60;;;9.30;99.90;;;;;;1973558;28;20030;-63
2023/05/30 02:07:11;;;;;;;9.20;3.15;;;9.30;99.90;;;;;;1970549;28;20772;-63
2023/05/30 02:08:08;;;;;;;5.97;2.47;;;9.30;99.90;;;;;;1973062;28;20097;-63
2023/05/30 02:09:06;;;;;;;10.55;3.22;;;9.30;99.90;;;;;;1969629;28;20037;-63
2023/05/30 02:10:03;;;;;;;9.77;3.25;;;9.30;99.90;;;;;;1973725;28;20022;-63
2023/05/30 02:11:01;;;;;;;10.93;3.05;;;9.20;99.90;;;;;;1973447;28;20371;-63
2023/05/30 02:11:59;;;;;;;12.55;3.17;;;9.20;99.90;;;;;;1972232;28;20044;-63
2023/05/30 02:12:56;;;;;;;15.65;3.47;;;9.20;99.90;;;;;;1973110;28;20013;-63
2023/05/30 02:13:54;;;;;;;8.95;3.10;;;9.10;99.90;;;;;;1971724;28;20044;-63
2023/05/30 02:14:52;;;;;;;7.45;2.90;;;9.10;99.90;;;;;;1972110;28;20167;-63
2023/05/30 02:15:50;;;;;;;7.07;2.95;;;9.10;99.90;;;;;;1972346;28;20117;-63
2023/05/30 02:16:47;;;;;;;12.13;3.35;;;9.20;99.90;;;;;;1969817;28;20040;-63
2023/05/30 02:17:45;;;;;;;12.77;3.28;;;9.10;99.90;;;;;;1972291;28;20056;-63
2023/05/30 02:18:42;;;;;;;11.23;3.38;;;9.10;99.90;;;;;;1973374;28;20090;-63
2023/05/30 02:19:40;;;;;;;16.73;3.30;;;9.10;99.90;;;;;;1972505;28;20489;-63
2023/05/30 02:20:37;;;;;;;7.00;2.88;;;9.10;99.90;;;;;;1972463;28;20029;-63
2023/05/30 02:21:35;;;;;;;11.68;3.63;;;9.00;99.90;;;;;;1973773;28;20090;-63
2023/05/30 02:22:33;;;;;;;14.52;3.65;;;9.00;99.90;;;;;;1973911;28;20057;-63
2023/05/30 02:23:30;;;;;;;8.57;2.72;;;9.00;99.90;;;;;;1971391;28;20033;-63
2023/05/30 02:24:28;;;;;;;18.95;3.13;;;9.00;99.90;;;;;;1970973;28;20084;-63
2023/05/30 02:25:26;;;;;;;8.45;2.97;;;8.90;99.90;;;;;;1970891;28;20093;-63
2023/05/30 02:26:24;;;;;;;11.02;3.20;;;9.00;99.90;;;;;;1971966;28;20029;-63
2023/05/30 02:27:21;;;;;;;7.32;2.90;;;9.00;99.90;;;;;;1971747;28;20129;-63
2023/05/30 02:28:19;;;;;;;7.25;3.05;;;8.90;99.90;;;;;;1973270;28;20125;-63
2023/05/30 02:29:17;;;;;;;12.55;3.10;;;8.90;99.90;;;;;;1975749;28;20026;-63
2023/05/30 02:30:14;;;;;;;10.63;3.40;;;8.90;99.90;;;;;;1973007;28;20083;-63
2023/05/30 02:31:12;;;;;;;10.55;2.95;;;8.80;99.90;;;;;;1974177;28;20509;-63
2023/05/30 02:32:10;;;;;;;10.63;3.15;;;8.80;99.90;;;;;;1973092;28;20492;-63
2023/05/30 02:33:07;;;;;;;6.15;3.10;;;8.90;99.90;;;;;;1972085;28;20057;-63
2023/05/30 02:34:05;;;;;;;9.15;2.97;;;8.90;99.90;;;;;;1973699;28;20028;-63
2023/05/30 02:35:03;;;;;;;8.27;2.70;;;8.90;99.90;;;;;;1974032;28;20286;-63
2023/05/30 02:36:00;;;;;;;8.43;3.25;;;8.90;99.90;;;;;;1973726;28;20030;-63
2023/05/30 02:36:59;;;;;;;10.68;2.95;;;8.80;99.90;;;;;;1970689;28;20076;-63
2023/05/30 02:37:56;;;;;;;13.02;3.72;;;8.90;99.90;;;;;;1974306;28;20025;-63
2023/05/30 02:38:54;;;;;;;10.55;2.90;;;8.80;99.90;;;;;;1971584;28;20025;-63
2023/05/30 02:39:51;;;;;;;13.48;3.28;;;8.80;99.90;;;;;;1971166;28;20408;-63
2023/05/30 02:40:49;;;;;;;10.15;3.20;;;8.80;99.90;;;;;;1970906;28;20025;-63
2023/05/30 02:41:46;;;;;;;11.95;3.13;;;7.50;99.90;;;;;;1970458;28;20372;-63
2023/05/30 02:42:44;;;;;;;9.93;3.30;;;8.60;99.90;;;;;;1969778;28;20085;-63
2023/05/30 02:43:42;;;;;;;16.02;3.40;;;8.70;99.90;;;;;;1970023;28;20033;-63
2023/05/30 02:44:39;;;;;;;14.63;3.13;;;8.70;99.90;;;;;;1969106;28;20161;-63
2023/05/30 02:45:37;;;;;;;7.80;3.08;;;8.60;99.90;;;;;;1972986;28;20029;-63
2023/05/30 02:46:34;;;;;;;8.85;2.33;;;8.60;99.90;;;;;;1971152;28;20153;-63
2023/05/30 02:47:32;;;;;;;16.65;3.92;;;8.60;99.90;;;;;;1971816;28;20145;-63
2023/05/30 02:48:30;;;;;;;12.93;3.85;;;8.60;99.90;;;;;;1971057;28;20137;-63
2023/05/30 02:49:27;;;;;;;9.57;3.50;;;8.60;99.90;;;;;;1974074;28;20025;-63
2023/05/30 02:50:25;;;;;;;17.92;3.15;;;8.60;99.90;;;;;;1971089;28;20095;-62
2023/05/30 02:51:22;;;;;;;13.27;3.90;;;8.50;99.90;;;;;;1972416;28;20046;-63
2023/05/30 02:52:21;;;;;;;14.20;3.80;;;8.60;99.90;;;;;;1972498;28;20435;-63
2023/05/30 02:53:19;;;;;;;13.13;3.80;;;8.60;99.90;;;;;;1972283;28;20033;-63
2023/05/30 02:54:17;;;;;;;9.15;3.00;;;8.60;99.90;;;;;;1973076;28;20030;-63
2023/05/30 02:55:14;;;;;;;13.30;3.15;;;8.60;99.90;;;;;;1970489;28;20052;-63
2023/05/30 02:56:12;;;;;;;15.70;3.30;;;8.60;99.90;;;;;;1970447;28;20025;-63
2023/05/30 02:57:09;;;;;;;19.58;4.35;;;8.60;99.90;;;;;;1973002;28;20087;-63
2023/05/30 02:58:07;;;;;;;10.27;3.47;;;8.60;99.90;;;;;;1970302;28;20029;-63
2023/05/30 02:59:05;;;;;;;14.25;3.65;;;8.60;99.90;;;;;;1973017;28;20025;-63
2023/05/30 03:00:03;;;;;;;11.43;3.05;;;8.70;99.90;;;;;;1972424;28;20029;-63
2023/05/30 03:01:01;;;;;;;14.23;3.17;;;8.60;99.90;;;;;;1971786;28;20072;-63
2023/05/30 03:01:58;;;;;;;10.77;3.15;;;8.60;99.90;;;;;;1970988;28;20462;-63
2023/05/30 03:02:56;;;;;;;14.90;3.17;;;8.60;99.90;;;;;;1970952;28;20041;-63
2023/05/30 03:03:53;;;;;;;10.68;3.47;;;8.60;99.90;;;;;;1971840;28;20487;-63
2023/05/30 03:04:51;;;;;;;11.18;3.80;;;8.60;99.90;;;;;;1971161;28;20068;-63
2023/05/30 03:05:49;;;;;;;11.65;3.00;;;8.60;99.90;;;;;;1974118;28;20048;-63
2023/05/30 03:06:49;;;;;;;8.30;3.22;;;8.60;99.90;;;;;;1970249;28;20023;-63
2023/05/30 03:07:47;;;;;;;8.63;3.30;;;8.60;99.90;;;;;;1973753;28;20033;-63
2023/05/30 03:08:44;;;;;;;14.55;3.80;;;8.70;99.90;;;;;;1973344;28;20025;-63
2023/05/30 03:09:42;;;;;;;12.15;3.22;;;8.60;99.90;;;;;;1971733;28;20104;-63
2023/05/30 03:10:39;;;;;;;9.05;3.33;;;8.60;99.90;;;;;;1970938;28;20372;-63
2023/05/30 03:11:37;;;;;;;10.95;3.75;;;8.60;99.90;;;;;;1971817;28;20109;-63
2023/05/30 03:12:34;;;;;;;19.13;3.53;;;8.60;99.90;;;;;;1970329;28;20036;-63
2023/05/30 03:13:32;;;;;;;14.18;3.78;;;8.60;99.90;;;;;;1972021;28;20021;-63
2023/05/30 03:14:29;;;;;;;14.05;3.92;;;8.60;99.90;;;;;;1963638;28;20026;-63
2023/05/30 03:15:27;;;;;;;20.48;4.50;;;8.60;99.90;;;;;;1972191;28;20029;-63
2023/05/30 03:16:26;;;;;;;20.25;4.43;;;8.60;99.90;;;;;;1973623;28;20033;-63
2023/05/30 03:17:24;;;;;;;14.88;3.85;;;8.60;99.90;;;;;;1971389;28;20052;-63
2023/05/30 03:18:21;;;;;;;15.20;4.50;;;8.60;99.90;;;;;;1973683;28;20021;-63
2023/05/30 03:19:20;;;;;;;14.10;4.05;;;8.60;99.90;;;;;;1972859;28;20592;-63
2023/05/30 03:20:17;;;;;;;14.20;3.55;;;8.60;99.90;;;;;;1972029;28;20025;-63
2023/05/30 03:21:15;;;;;;;14.60;4.07;;;8.60;99.90;;;;;;1972422;28;20469;-63
2023/05/30 03:22:12;;;;;;;12.18;3.40;;;8.60;99.90;;;;;;1971952;28;20745;-63
2023/05/30 03:23:10;;;;;;;15.60;3.55;;;8.60;99.90;;;;;;1971241;28;20087;-63
2023/05/30 03:24:08;;;;;;;14.23;3.90;;;8.60;99.90;;;;;;1970494;28;20045;-63
2023/05/30 03:25:06;;;;;;;8.57;3.30;;;8.70;99.90;;;;;;1972907;28;20018;-63
2023/05/30 03:26:04;;;;;;;16.08;4.07;;;8.70;99.90;;;;;;1971756;28;20037;-63
2023/05/30 03:27:02;;;;;;;12.50;3.78;;;8.70;99.90;;;;;;1971676;28;20441;-63
2023/05/30 03:28:00;;;;;;;20.83;4.00;;;8.60;99.90;;;;;;1972389;28;20503;-63
2023/05/30 03:28:58;;;;;;;13.95;3.75;;;8.60;99.90;;;;;;1969615;28;20124;-63
2023/05/30 03:29:56;;;;;;;12.18;3.38;;;8.60;99.90;;;;;;1970235;28;20050;-63
2023/05/30 03:30:56;;;;;;;10.18;3.25;;;8.70;99.90;;;;;;1970537;28;20041;-63
2023/05/30 03:31:53;;;;;;;17.05;3.40;;;8.60;99.90;;;;;;1972063;28;20025;-63
2023/05/30 03:32:51;;;;;;;8.88;3.78;;;8.60;99.90;;;;;;1971096;28;20035;-63
2023/05/30 03:33:48;;;;;;;14.35;3.60;;;8.60;99.90;;;;;;1968994;28;20040;-63
2023/05/30 03:34:46;;;;;;;13.70;3.53;;;8.60;99.90;;;;;;1973906;28;20171;-63
2023/05/30 03:35:43;;;;;;;11.60;3.60;;;8.60;99.90;;;;;;1972307;28;20014;-63
2023/05/30 03:36:41;;;;;;;14.82;3.60;;;8.70;99.90;;;;;;1970423;28;20083;-63
2023/05/30 03:37:38;;;;;;;14.73;4.03;;;8.60;99.90;;;;;;1972363;28;20111;-63
2023/05/30 03:38:37;;;;;;;13.75;3.88;;;8.70;99.90;;;;;;1972062;28;20470;-63
2023/05/30 03:39:34;;;;;;;14.48;4.07;;;8.60;99.90;;;;;;1970971;28;20030;-63
2023/05/30 03:40:32;;;;;;;14.55;4.43;;;8.60;99.90;;;;;;1970963;28;20394;-63
2023/05/30 03:41:29;;;;;;;10.00;3.47;;;8.60;99.90;;;;;;1972523;28;20045;-63
2023/05/30 03:42:27;;;;;;;11.63;4.20;;;8.60;99.90;;;;;;1974510;28;20446;-63
2023/05/30 03:43:24;;;;;;;9.52;3.45;;;8.60;99.90;;;;;;1970850;28;20018;-63
2023/05/30 03:44:22;;;;;;;13.88;4.10;;;8.60;99.90;;;;;;1970983;28;20041;-63
2023/05/30 03:45:19;;;;;;;21.38;4.40;;;8.60;99.90;;;;;;1979316;28;20021;-63
2023/05/30 03:46:19;;;;;;;13.90;4.45;;;8.60;99.90;;;;;;1978310;28;20410;-63
2023/05/30 03:47:17;;;;;;;14.82;4.05;;;8.60;99.90;;;;;;1971110;28;20037;-63
2023/05/30 03:48:14;;;;;;;14.65;4.47;;;8.60;99.90;;;;;;1971775;28;20017;-63
2023/05/30 03:49:12;;;;;;;18.30;4.70;;;8.60;99.90;;;;;;1969581;28;20049;-63
2023/05/30 03:50:09;;;;;;;13.10;4.90;;;8.70;99.90;;;;;;1973366;28;20018;-63
2023/05/30 03:51:07;;;;;;;14.48;4.88;;;8.70;99.90;;;;;;1969084;28;20026;-63
2023/05/30 03:52:04;;;;;;;17.00;4.43;;;8.70;99.90;;;;;;1972394;28;20471;-64
2023/05/30 03:53:02;;;;;;;22.13;5.90;;;8.70;99.90;;;;;;1973913;28;20033;-63
2023/05/30 03:54:00;;;;;;;16.13;5.53;;;8.70;99.90;;;;;;1972279;28;20035;-63
2023/05/30 03:54:57;;;;;;;16.17;5.43;;;8.70;99.90;;;;;;1972044;28;20484;-63
2023/05/30 03:55:55;;;;;;;19.90;5.57;;;8.70;99.90;;;;;;1972563;28;20021;-63
2023/05/30 03:56:52;;;;;;;19.92;5.85;;;8.70;99.90;;;;;;1971459;28;20105;-63
2023/05/30 03:57:50;;;;;;;13.05;5.53;;;8.80;99.90;;;;;;1973830;28;20036;-63
2023/05/30 03:58:47;;;;;;;23.80;6.05;;;8.70;99.90;;;;;;1969586;28;20079;-63
2023/05/30 03:59:45;;;;;;;14.02;5.18;;;8.70;99.90;;;;;;1970344;28;20018;-63
2023/05/30 04:00:43;;;;;;;17.60;5.35;;;8.70;99.90;;;;;;1969308;28;20030;-63
2023/05/30 04:01:40;;;;;;;25.65;5.97;;;8.80;99.90;;;;;;1970704;28;20028;-63
2023/05/30 04:02:38;;;;;;;18.83;6.57;;;8.80;99.90;;;;;;1971650;28;20057;-63
2023/05/30 04:03:37;;;;;;;16.10;6.22;;;8.80;99.90;;;;;;1972621;28;20113;-63
2023/05/30 04:04:35;;;;;;;21.73;6.85;;;8.80;99.90;;;;;;1972365;28;20590;-63
2023/05/30 04:05:33;;;;;;;23.48;7.60;;;8.80;99.90;;;;;;1969577;28;20037;-63
2023/05/30 04:06:30;;;;;;;25.83;8.38;;;8.80;99.90;;;;;;1970300;28;20037;-63
2023/05/30 04:07:28;;;;;;;26.30;8.82;;;8.70;99.90;;;;;;1971985;28;20030;-63
2023/05/30 04:08:25;;;;;;;16.63;7.65;;;8.80;99.90;;;;;;1973267;28;20108;-63
2023/05/30 04:09:23;;;;;;;23.40;8.77;;;8.80;99.90;;;;;;1970772;28;20033;-63
2023/05/30 04:10:21;;;;;;;32.05;9.88;;;8.80;99.90;;;;;;1973316;28;20106;-63
2023/05/30 04:11:19;;;;;;;18.13;8.40;;;8.80;99.90;;;;;;1970918;28;20064;-63
2023/05/30 04:12:16;;;;;;;18.27;7.50;;;8.80;99.90;;;;;;1972331;28;20097;-63
2023/05/30 04:13:14;;;;;;;19.88;8.07;;;8.80;99.90;;;;;;1973154;28;20029;-63
2023/05/30 04:14:11;;;;;;;18.27;7.75;;;8.90;99.90;;;;;;1972108;28;20114;-63
2023/05/30 04:15:10;;;;;;;22.98;8.98;;;8.10;99.90;;;;;;1970016;28;20033;-63
2023/05/30 04:16:07;;;;;;;16.90;6.97;;;8.90;99.90;;;;;;1971584;28;20026;-63
2023/05/30 04:17:05;;;;;;;25.25;9.27;;;8.90;99.90;;;;;;1971779;28;20037;-63
2023/05/30 04:18:03;;;;;;;20.35;8.48;;;8.90;99.90;;;;;;1974337;28;20343;-63
2023/05/30 04:19:01;;;;;;;20.10;8.30;;;8.90;99.90;;;;;;1971087;28;20036;-63
2023/05/30 04:19:58;;;;;;;24.50;8.23;;;9.00;99.90;;;;;;1972882;28;20021;-63
2023/05/30 04:20:56;;;;;;;20.27;8.52;;;8.90;99.90;;;;;;1970611;28;20029;-63
2023/05/30 04:21:53;;;;;;;23.70;8.90;;;8.90;99.90;;;;;;1970106;28;20494;-63
2023/05/30 04:22:51;;;;;;;20.70;9.00;;;8.90;99.90;;;;;;1970428;28;20029;-63
2023/05/30 04:23:48;;;;;;;18.35;8.00;;;9.00;99.90;;;;;;1968883;28;20040;-63
2023/05/30 04:24:46;;;;;;;21.13;7.90;;;9.00;99.90;;;;;;1970577;28;20025;-63
2023/05/30 04:25:44;;;;;;;22.33;8.02;;;8.90;99.90;;;;;;1972093;28;20033;-63
2023/05/30 04:26:41;;;;;;;23.38;9.18;;;8.90;99.90;;;;;;1967799;28;20030;-63
2023/05/30 04:27:40;;;;;;;23.00;8.18;;;8.90;99.90;;;;;;1969967;28;20436;-63
2023/05/30 04:28:41;;;;;;;18.63;8.20;;;10.10;99.90;;;;;;1971556;28;20020;-63
2023/05/30 04:29:42;;;;;;;18.75;9.10;;;9.30;99.90;;;;;;1970190;28;20056;-63
2023/05/30 04:30:40;;;;;;;11.52;6.72;;;9.00;99.90;;;;;;1971780;28;20045;-63
2023/05/30 04:31:38;;;;;;;22.73;9.23;;;9.00;99.90;;;;;;1971639;28;20029;-63
2023/05/30 04:32:36;;;;;;;22.77;9.63;;;8.60;99.90;;;;;;1971516;28;20033;-63
2023/05/30 04:33:35;;;;;;;23.60;10.15;;;9.00;99.90;;;;;;1968702;28;20030;-63
2023/05/30 04:34:32;;;;;;;22.13;10.07;;;9.10;99.90;;;;;;1969185;28;20033;-63
2023/05/30 04:35:32;;;;;;;30.98;10.23;;;9.10;99.90;;;;;;1969743;28;20022;-63
2023/05/30 04:36:32;;;;;;;26.80;9.50;;;9.10;99.90;;;;;;1971590;28;20053;-63
2023/05/30 04:37:30;;;;;;;26.65;9.95;;;9.10;99.90;;;;;;1972652;28;20017;-63
2023/05/30 04:38:28;;;;;;;26.15;10.60;;;9.00;99.90;;;;;;1971123;28;20025;-63
2023/05/30 04:39:26;;;;;;;22.73;9.77;;;9.10;99.90;;;;;;1971360;28;20478;-63
2023/05/30 04:40:25;;;;;;;23.98;11.38;;;9.00;99.90;;;;;;1970112;28;20018;-63
2023/05/30 04:41:24;;;;;;;24.75;11.20;;;9.00;99.90;;;;;;1970510;28;20018;-63
2023/05/30 04:42:28;;;;;;;25.17;11.23;;;9.10;99.90;;;;;;1969999;28;20040;-63
2023/05/30 04:43:26;;;;;;;24.73;12.05;;;9.10;99.90;;;;;;1970639;28;20120;-63
2023/05/30 04:44:23;;;;;;;22.88;11.85;;;9.10;99.90;;;;;;1971345;28;20513;-63
2023/05/30 04:45:28;;;;;;;28.65;12.25;;;9.10;99.90;;;;;;1973908;28;20488;-63
2023/05/30 04:46:27;;;;;;;23.63;11.48;;;9.10;99.90;;;;;;1972158;28;20014;-63
2023/05/30 04:47:25;;;;;;;24.83;11.82;;;9.10;99.90;;;;;;1972212;28;20801;-63
2023/05/30 04:48:22;;;;;;;27.40;11.35;;;9.10;99.90;;;;;;1973539;28;20024;-63
2023/05/30 04:49:20;;;;;;;28.33;11.68;;;9.10;99.90;;;;;;1972348;28;20014;-63
2023/05/30 04:50:19;;;;;;;28.15;11.18;;;9.20;99.90;;;;;;1972549;28;20025;-63
2023/05/30 04:51:17;;;;;;;27.92;11.57;;;9.20;99.90;;;;;;1972663;28;20021;-63
2023/05/30 04:52:16;;;;;;;29.83;12.32;;;9.30;99.90;;;;;;1971979;28;20167;-63
2023/05/30 04:53:15;;;;;;;36.10;14.38;;;9.20;99.90;;;;;;1972309;28;20075;-63
2023/05/30 04:54:13;;;;;;;27.23;14.40;;;9.20;99.90;;;;;;1971079;28;20033;-63
2023/05/30 04:55:11;;;;;;;34.67;13.30;;;9.30;99.90;;;;;;1970997;28;20502;-63
2023/05/30 04:56:08;;;;;;;33.08;13.52;;;9.30;99.90;;;;;;1971131;28;20025;-63
2023/05/30 04:57:06;;;;;;;34.53;14.38;;;9.30;99.90;;;;;;1971826;28;20030;-63
2023/05/30 04:58:03;;;;;;;29.70;14.10;;;9.30;99.90;;;;;;1971224;28;20025;-63
2023/05/30 04:59:01;;;;;;;26.10;13.63;;;9.30;99.90;;;;;;1973878;28;20025;-63
2023/05/30 04:59:59;;;;;;;26.27;13.52;;;9.30;99.90;;;;;;1969007;28;20033;-63
2023/05/30 05:00:58;;;;;;;30.08;13.95;;;9.40;99.90;;;;;;1971590;28;20068;-63
2023/05/30 05:01:56;;;;;;;26.55;12.55;;;9.40;99.90;;;;;;1970668;28;20108;-63
2023/05/30 05:02:54;;;;;;;28.13;12.57;;;9.40;99.90;;;;;;1972497;28;20029;-63
2023/05/30 05:03:52;;;;;;;33.95;12.55;;;9.40;99.90;;;;;;1973770;28;20103;-63
2023/05/30 05:04:49;;;;;;;26.27;12.25;;;9.40;99.90;;;;;;1972359;28;20187;-63
2023/05/30 05:05:47;;;;;;;21.15;11.75;;;9.40;99.90;;;;;;1972703;28;20095;-63
2023/05/30 05:06:44;;;;;;;21.20;12.20;;;9.40;99.90;;;;;;1973668;28;20044;-63